Time;durP1;ratioP1;P1;durP2;ratioP2;P2;SDS_P1;SDS_P2;PMS_P1;PMS_P2;Temp;Humidity;BMP_temperature;BMP_pressure;BME280_temperature;BME280_humidity;BME280_pressure;Samples;Min_cycle;Max_cycle;Signal;HPM_P1;HPM_P2
2023/08/16 00:00:34;;;;;;;;;;;24.00;99.90;;;;;;4595434;19;19918;-62
2023/08/16 00:02:25;;;;;;;;;;;24.00;99.90;;;;;;4595839;19;19928;-62
2023/08/16 00:03:56;;;;;;;;;;;24.00;99.90;;;;;;4596125;19;19914;-62
2023/08/16 00:05:29;;;;;;;;;;;24.00;99.90;;;;;;4595738;19;19914;-62
2023/08/16 00:07:01;;;;;;;;;;;24.00;99.90;;;;;;4595765;19;19925;-62
2023/08/16 00:08:33;;;;;;;;;;;24.00;99.90;;;;;;4595203;19;19922;-62
2023/08/16 00:10:09;;;;;;;;;;;24.00;99.90;;;;;;4594187;19;19928;-62
2023/08/16 00:11:41;;;;;;;;;;;24.00;99.90;;;;;;4595718;19;19915;-62
2023/08/16 00:13:12;;;;;;;;;;;24.00;99.90;;;;;;4595569;19;19929;-62
2023/08/16 00:14:44;;;;;;;;;;;24.00;99.90;;;;;;4595576;19;19911;-62
2023/08/16 00:16:15;;;;;;;;;;;24.00;99.90;;;;;;4595501;19;20308;-61
2023/08/16 00:17:47;;;;;;;;;;;24.00;99.90;;;;;;4595827;19;19914;-62
2023/08/16 00:19:19;;;;;;;;;;;24.00;99.90;;;;;;4595102;19;20301;-62
2023/08/16 00:20:50;;;;;;;;;;;24.00;99.90;;;;;;4595437;19;19939;-62
2023/08/16 00:22:22;;;;;;;;;;;24.00;99.90;;;;;;4595452;19;20069;-62
2023/08/16 00:23:53;;;;;;;;;;;24.00;99.90;;;;;;4595362;19;20286;-62
2023/08/16 00:25:26;;;;;;;;;;;23.90;99.90;;;;;;4595304;19;19915;-62
2023/08/16 00:26:58;;;;;;;;;;;23.90;99.90;;;;;;4595366;19;20234;-62
2023/08/16 00:28:29;;;;;;;;;;;23.90;99.90;;;;;;4594903;19;19935;-62
2023/08/16 00:30:01;;;;;;;;;;;23.90;99.90;;;;;;4593746;19;19950;-62
2023/08/16 00:31:36;;;;;;;;;;;23.90;99.90;;;;;;4593890;19;19974;-62
2023/08/16 00:33:07;;;;;;;;;;;23.90;99.90;;;;;;4595157;19;19914;-62
2023/08/16 00:34:39;;;;;;;;;;;23.90;99.90;;;;;;4594449;19;19915;-62
2023/08/16 00:36:10;;;;;;;;;;;23.90;99.90;;;;;;4595136;19;19937;-62
2023/08/16 00:37:41;;;;;;;;;;;23.90;99.90;;;;;;4595096;19;19917;-62
2023/08/16 00:39:13;;;;;;;;;;;23.90;99.90;;;;;;4594506;19;19910;-62
2023/08/16 00:40:48;;;;;;;;;;;23.80;99.90;;;;;;4594997;19;19922;-62
2023/08/16 00:42:19;;;;;;;;;;;23.90;99.90;;;;;;4595359;19;19919;-62
2023/08/16 00:43:52;;;;;;;;;;;23.90;99.90;;;;;;4594909;19;19922;-62
2023/08/16 00:45:25;;;;;;;;;;;23.80;99.90;;;;;;4594883;19;20230;-62
2023/08/16 00:46:57;;;;;;;;;;;23.80;99.90;;;;;;4594877;19;19911;-62
2023/08/16 00:48:28;;;;;;;;;;;23.80;99.90;;;;;;4594518;19;19925;-62
2023/08/16 00:50:00;;;;;;;;;;;23.80;99.90;;;;;;4593585;19;20259;-62
2023/08/16 00:51:33;;;;;;;;;;;23.80;99.90;;;;;;4594836;19;19993;-62
2023/08/16 00:53:05;;;;;;;;;;;23.70;99.90;;;;;;4593410;19;19970;-62
2023/08/16 00:54:36;;;;;;;;;;;23.70;99.90;;;;;;4594366;19;19914;-62
2023/08/16 00:56:08;;;;;;;;;;;23.70;99.90;;;;;;4594775;19;20309;-62
2023/08/16 00:57:40;;;;;;;;;;;23.70;99.90;;;;;;4593437;19;19915;-62
2023/08/16 00:59:11;;;;;;;;;;;23.70;99.90;;;;;;4594066;19;20227;-62
2023/08/16 01:00:44;;;;;;;;;;;23.70;99.90;;;;;;4594624;19;19970;-62
2023/08/16 01:02:17;;;;;;;;;;;23.70;99.90;;;;;;4594538;19;20345;-62
2023/08/16 01:03:49;;;;;;;;;;;23.70;99.90;;;;;;4594535;19;19911;-62
2023/08/16 01:05:20;;;;;;;;;;;23.70;99.90;;;;;;4594861;19;19931;-62
2023/08/16 01:06:57;;;;;;;;;;;23.70;99.90;;;;;;4594505;19;19922;-62
2023/08/16 01:08:30;;;;;;;;;;;23.70;99.90;;;;;;4594189;19;20208;-62
2023/08/16 01:10:01;;;;;;;;;;;23.60;99.90;;;;;;4591961;19;19931;-62
2023/08/16 01:11:38;;;;;;;;;;;23.60;99.90;;;;;;4593932;19;19911;-62
2023/08/16 01:13:26;;;;;;;;;;;23.60;99.90;;;;;;4594465;19;19922;-62
2023/08/16 01:15:00;;;;;;;;;;;23.60;99.90;;;;;;4592995;19;19923;-62
2023/08/16 01:16:32;;;;;;;;;;;23.60;99.90;;;;;;4594265;19;19929;-62
2023/08/16 01:18:04;;;;;;;;;;;23.60;99.90;;;;;;4594215;19;20267;-62
2023/08/16 01:19:35;;;;;;;;;;;23.60;99.90;;;;;;4593458;19;19914;-62
2023/08/16 01:21:07;;;;;;;;;;;23.60;99.90;;;;;;4594283;19;19907;-62
2023/08/16 01:22:45;;;;;;;;;;;23.50;99.90;;;;;;4592891;19;19921;-62
2023/08/16 01:24:18;;;;;;;;;;;23.50;99.90;;;;;;4593863;19;19911;-62
2023/08/16 01:25:53;;;;;;;;;;;23.50;99.90;;;;;;4594059;19;19922;-62
2023/08/16 01:27:25;;;;;;;;;;;23.50;99.90;;;;;;4594040;19;20249;-62
2023/08/16 01:28:57;;;;;;;;;;;23.50;99.90;;;;;;4592018;19;19918;-62
2023/08/16 01:30:28;;;;;;;;;;;23.50;99.90;;;;;;4593582;19;19926;-62
2023/08/16 01:32:00;;;;;;;;;;;23.50;99.90;;;;;;4592672;19;20203;-62
2023/08/16 01:33:32;;;;;;;;;;;23.50;99.90;;;;;;4592625;19;19915;-62
2023/08/16 01:35:04;;;;;;;;;;;23.50;99.90;;;;;;4592573;19;19915;-62
2023/08/16 01:36:35;;;;;;;;;;;23.50;99.90;;;;;;4593403;19;20283;-62
2023/08/16 01:38:08;;;;;;;;;;;23.50;99.90;;;;;;4592553;19;19915;-61
2023/08/16 01:39:39;;;;;;;;;;;23.50;99.90;;;;;;4592657;19;19929;-62
2023/08/16 01:41:25;;;;;;;;;;;23.50;99.90;;;;;;4593810;19;20282;-62
2023/08/16 01:42:57;;;;;;;;;;;23.50;99.90;;;;;;4593691;19;19911;-61
2023/08/16 01:44:28;;;;;;;;;;;23.40;99.90;;;;;;4593698;19;20298;-62
2023/08/16 01:46:00;;;;;;;;;;;23.40;99.90;;;;;;4590924;19;19921;-62
2023/08/16 01:47:31;;;;;;;;;;;23.40;99.90;;;;;;4592969;19;19922;-62
2023/08/16 01:49:03;;;;;;;;;;;23.40;99.90;;;;;;4592909;19;20260;-62
2023/08/16 01:50:34;;;;;;;;;;;23.40;99.90;;;;;;4593594;19;19914;-62
2023/08/16 01:52:05;;;;;;;;;;;23.40;99.90;;;;;;4593600;19;19910;-62
2023/08/16 01:53:37;;;;;;;;;;;23.40;99.90;;;;;;4593505;19;19997;-62
2023/08/16 01:55:08;;;;;;;;;;;23.40;99.90;;;;;;4593485;19;19938;-62
2023/08/16 01:56:40;;;;;;;;;;;23.40;99.90;;;;;;4593589;19;19925;-62
2023/08/16 01:58:11;;;;;;;;;;;23.40;99.90;;;;;;4593453;19;19921;-62
2023/08/16 01:59:43;;;;;;;;;;;23.40;99.90;;;;;;4592619;19;19921;-62
2023/08/16 02:01:15;;;;;;;;;;;23.40;99.90;;;;;;4593359;19;19978;-62
2023/08/16 02:02:46;;;;;;;;;;;23.40;99.90;;;;;;4593371;19;19914;-62
2023/08/16 02:04:18;;;;;;;;;;;23.40;99.90;;;;;;4593342;19;20301;-62
2023/08/16 02:05:49;;;;;;;;;;;23.40;99.90;;;;;;4593295;19;19918;-62
2023/08/16 02:07:21;;;;;;;;;;;23.40;99.90;;;;;;4593253;19;19915;-62
2023/08/16 02:08:53;;;;;;;;;;;23.40;99.90;;;;;;4592638;19;19919;-62
2023/08/16 02:10:24;;;;;;;;;;;23.40;99.90;;;;;;4593160;19;19922;-62
2023/08/16 02:11:56;;;;;;;;;;;23.40;99.90;;;;;;4593213;19;19917;-62
2023/08/16 02:13:27;;;;;;;;;;;23.40;99.90;;;;;;4593218;19;19920;-61
2023/08/16 02:14:58;;;;;;;;;;;23.40;99.90;;;;;;4593145;19;19918;-62
2023/08/16 02:16:30;;;;;;;;;;;23.40;99.90;;;;;;4593095;19;19919;-62
2023/08/16 02:18:02;;;;;;;;;;;23.40;99.90;;;;;;4591736;19;19917;-62
2023/08/16 02:19:33;;;;;;;;;;;23.40;99.90;;;;;;4591894;19;20218;-62
2023/08/16 02:21:04;;;;;;;;;;;23.40;99.90;;;;;;4593014;19;20238;-62
2023/08/16 02:22:36;;;;;;;;;;;23.40;99.90;;;;;;4593287;19;19946;-62
2023/08/16 02:24:07;;;;;;;;;;;23.40;99.90;;;;;;4593333;19;19915;-62
2023/08/16 02:25:39;;;;;;;;;;;23.40;99.90;;;;;;4591768;19;19914;-61
2023/08/16 02:27:11;;;;;;;;;;;23.40;99.90;;;;;;4592542;19;19921;-62
2023/08/16 02:28:42;;;;;;;;;;;23.40;99.90;;;;;;4592510;19;20229;-62
2023/08/16 02:30:13;;;;;;;;;;;23.40;99.90;;;;;;4591806;19;19918;-62
2023/08/16 02:31:45;;;;;;;;;;;23.40;99.90;;;;;;4593199;19;19947;-62
2023/08/16 02:33:16;;;;;;;;;;;23.40;99.90;;;;;;4592831;19;20266;-62
2023/08/16 02:34:47;;;;;;;;;;;23.30;99.90;;;;;;4592808;19;19922;-62
2023/08/16 02:36:19;;;;;;;;;;;23.40;99.90;;;;;;4592830;19;19915;-62
2023/08/16 02:37:51;;;;;;;;;;;23.40;99.90;;;;;;4592751;19;19935;-62
2023/08/16 02:39:22;;;;;;;;;;;23.40;99.90;;;;;;4592182;19;19948;-62
2023/08/16 02:40:54;;;;;;;;;;;23.40;99.90;;;;;;4592690;19;19979;-62
2023/08/16 02:42:25;;;;;;;;;;;23.40;99.90;;;;;;4593029;19;20386;-62
2023/08/16 02:43:59;;;;;;;;;;;23.30;99.90;;;;;;4592623;19;19915;-62
2023/08/16 02:45:30;;;;;;;;;;;23.30;99.90;;;;;;4592630;19;19919;-62
2023/08/16 02:47:01;;;;;;;;;;;23.30;99.90;;;;;;4592626;19;19920;-62
2023/08/16 02:48:35;;;;;;;;;;;23.30;99.90;;;;;;4590943;19;20309;-62
2023/08/16 02:50:06;;;;;;;;;;;23.30;99.90;;;;;;4590928;19;19917;-62
2023/08/16 02:51:38;;;;;;;;;;;23.30;99.90;;;;;;4592527;19;19915;-62
2023/08/16 02:53:09;;;;;;;;;;;23.30;99.90;;;;;;4592518;19;19914;-62
2023/08/16 02:54:40;;;;;;;;;;;23.30;99.90;;;;;;4592565;19;19911;-62
2023/08/16 02:56:12;;;;;;;;;;;23.30;99.90;;;;;;4592431;19;19917;-62
2023/08/16 02:57:45;;;;;;;;;;;23.30;99.90;;;;;;4594342;19;19911;-62
2023/08/16 02:59:16;;;;;;;;;;;23.30;99.90;;;;;;4596322;19;19911;-62
2023/08/16 03:00:50;;;;;;;;;;;23.30;99.90;;;;;;4597104;19;19915;-62
2023/08/16 03:02:25;;;;;;;;;;;23.30;99.90;;;;;;4597443;19;20324;-62
2023/08/16 03:03:56;;;;;;;;;;;23.30;99.90;;;;;;4597015;19;19923;-62
2023/08/16 03:05:27;;;;;;;;;;;23.30;99.90;;;;;;4596965;19;19921;-62
2023/08/16 03:07:00;;;;;;;;;;;23.30;99.90;;;;;;4597007;19;20249;-62
2023/08/16 03:08:32;;;;;;;;;;;23.30;99.90;;;;;;4596611;19;19918;-62
2023/08/16 03:10:04;;;;;;;;;;;23.30;99.90;;;;;;4595231;19;19922;-62
2023/08/16 03:11:37;;;;;;;;;;;23.30;99.90;;;;;;4597187;19;19925;-62
2023/08/16 03:13:08;;;;;;;;;;;23.30;99.90;;;;;;4596831;19;20301;-62
2023/08/16 03:14:40;;;;;;;;;;;23.30;99.90;;;;;;4596868;19;19947;-62
2023/08/16 03:16:12;;;;;;;;;;;23.30;99.90;;;;;;4596805;19;19947;-62
2023/08/16 03:17:43;;;;;;;;;;;23.30;99.90;;;;;;4596724;19;19918;-62
2023/08/16 03:19:14;;;;;;;;;;;23.20;99.90;;;;;;4596198;19;20267;-62
2023/08/16 03:20:46;;;;;;;;;;;23.20;99.90;;;;;;4596625;19;19919;-62
2023/08/16 03:22:17;;;;;;;;;;;23.30;99.90;;;;;;4596774;19;19914;-62
2023/08/16 03:23:48;;;;;;;;;;;23.20;99.90;;;;;;4596968;19;19910;-62
2023/08/16 03:25:20;;;;;;;;;;;23.20;99.90;;;;;;4597134;19;19918;-62
2023/08/16 03:26:52;;;;;;;;;;;23.20;99.90;;;;;;4598931;19;19915;-62
2023/08/16 03:28:25;;;;;;;;;;;23.20;99.90;;;;;;4598245;19;20003;-61
2023/08/16 03:29:56;;;;;;;;;;;23.20;99.90;;;;;;4595132;19;20353;-61
2023/08/16 03:31:28;;;;;;;;;;;23.20;99.90;;;;;;4596501;19;19918;-62
2023/08/16 03:32:59;;;;;;;;;;;23.20;99.90;;;;;;4596401;19;19936;-62
2023/08/16 03:34:30;;;;;;;;;;;23.30;99.90;;;;;;4596410;19;19918;-61
2023/08/16 03:36:02;;;;;;;;;;;23.30;99.90;;;;;;4596386;19;19918;-62
2023/08/16 03:37:34;;;;;;;;;;;23.30;99.90;;;;;;4596338;19;20235;-62
2023/08/16 03:39:06;;;;;;;;;;;23.40;99.90;;;;;;4595821;19;19918;-62
2023/08/16 03:40:39;;;;;;;;;;;23.40;99.90;;;;;;4598400;19;19911;-62
2023/08/16 03:42:11;;;;;;;;;;;23.30;99.90;;;;;;4596205;19;19918;-61
2023/08/16 03:43:42;;;;;;;;;;;23.20;99.90;;;;;;4596003;19;19919;-62
2023/08/16 03:45:14;;;;;;;;;;;23.20;99.90;;;;;;4594444;19;20245;-62
2023/08/16 03:46:45;;;;;;;;;;;23.10;99.90;;;;;;4595730;19;19918;-62
2023/08/16 03:48:17;;;;;;;;;;;23.10;99.90;;;;;;4598316;19;19978;-62
2023/08/16 03:49:49;;;;;;;;;;;23.00;99.90;;;;;;4594383;19;19943;-62
2023/08/16 03:51:22;;;;;;;;;;;23.00;99.90;;;;;;4596066;19;19989;-62
2023/08/16 03:52:54;;;;;;;;;;;23.20;99.90;;;;;;4596046;19;19919;-62
2023/08/16 03:54:25;;;;;;;;;;;23.40;99.90;;;;;;4596325;19;19915;-62
2023/08/16 03:55:59;;;;;;;;;;;23.70;99.90;;;;;;4595906;19;19918;-62
2023/08/16 03:57:32;;;;;;;;;;;23.80;99.90;;;;;;4595905;19;19914;-62
2023/08/16 03:59:04;;;;;;;;;;;24.00;99.90;;;;;;4595442;19;19915;-61
2023/08/16 04:00:37;;;;;;;;;;;24.10;99.90;;;;;;4596236;19;19918;-62
2023/08/16 04:02:09;;;;;;;;;;;24.10;99.90;;;;;;4595865;19;19925;-61
2023/08/16 04:03:41;;;;;;;;;;;24.20;99.90;;;;;;4595818;19;19914;-62
2023/08/16 04:05:12;;;;;;;;;;;24.20;99.90;;;;;;4596429;19;20240;-62
2023/08/16 04:06:44;;;;;;;;;;;24.30;99.90;;;;;;4595742;19;19926;-61
2023/08/16 04:08:15;;;;;;;;;;;24.30;99.90;;;;;;4595845;19;19922;-61
2023/08/16 04:09:47;;;;;;;;;;;24.30;99.90;;;;;;4592643;19;19910;-68
2023/08/16 04:11:18;;;;;;;;;;;24.30;99.90;;;;;;4595783;19;19910;-62
2023/08/16 04:12:51;;;;;;;;;;;24.30;99.90;;;;;;4595656;19;19922;-62
2023/08/16 04:14:22;;;;;;;;;;;24.40;99.90;;;;;;4595615;19;20322;-62
2023/08/16 04:15:54;;;;;;;;;;;24.40;99.90;;;;;;4595553;19;19922;-63
2023/08/16 04:17:26;;;;;;;;;;;24.40;99.90;;;;;;4595650;19;19910;-63
2023/08/16 04:18:57;;;;;;;;;;;24.40;99.90;;;;;;4595133;19;20309;-63
2023/08/16 04:20:29;;;;;;;;;;;24.40;99.90;;;;;;4595486;19;19915;-63
2023/08/16 04:22:01;;;;;;;;;;;24.10;99.90;;;;;;4594356;19;19935;-62
2023/08/16 04:23:32;;;;;;;;;;;23.80;99.90;;;;;;4593855;19;19911;-62
2023/08/16 04:25:04;;;;;;;;;;;23.50;99.90;;;;;;4594176;19;20308;-62
2023/08/16 04:26:35;;;;;;;;;;;23.30;99.90;;;;;;4594069;19;19978;-63
2023/08/16 04:28:06;;;;;;;;;;;23.10;99.90;;;;;;4593744;19;19937;-62
2023/08/16 04:29:38;;;;;;;;;;;23.00;99.90;;;;;;4592179;19;20286;-63
2023/08/16 04:31:09;;;;;;;;;;;22.90;99.90;;;;;;4593710;19;20298;-63
2023/08/16 04:32:42;;;;;;;;;;;22.80;99.90;;;;;;4593565;19;19946;-62
2023/08/16 04:34:13;;;;;;;;;;;22.70;99.90;;;;;;4593140;19;19982;-62
2023/08/16 04:35:45;;;;;;;;;;;22.70;99.90;;;;;;4592926;19;19923;-63
2023/08/16 04:37:16;;;;;;;;;;;22.60;99.90;;;;;;4594130;19;19937;-62
2023/08/16 04:38:47;;;;;;;;;;;22.60;99.90;;;;;;4595072;19;20311;-63
2023/08/16 09:38:06;;;;;;;;;;;25.80;99.90;;;;;;4527942;19;19928;-63
2023/08/16 09:39:38;;;;;;;;;;;25.80;99.90;;;;;;4592066;19;19922;-59
2023/08/16 09:41:18;;;;;;;;;;;24.00;99.90;;;;;;4593363;19;19914;-59
2023/08/16 09:42:50;;;;;;;;;;;23.50;99.90;;;;;;4593896;19;19914;-59
2023/08/16 09:44:26;;;;;;;;;;;23.60;99.90;;;;;;4593717;19;19923;-59
2023/08/16 09:45:58;;;;;;;;;;;23.80;99.90;;;;;;4593805;19;20236;-60
2023/08/16 09:47:31;;;;;;;;;;;23.90;99.90;;;;;;4592385;19;20290;-60
2023/08/16 09:49:04;;;;;;;;;;;24.00;99.90;;;;;;4592078;19;19923;-59
2023/08/16 09:50:35;;;;;;;;;;;24.20;99.90;;;;;;4592330;19;19966;-60
2023/08/16 09:52:10;;;;;;;;;;;24.30;99.90;;;;;;4593299;19;19911;-60
2023/08/16 09:53:47;;;;;;;;;;;24.40;99.90;;;;;;4592316;19;19995;-60
2023/08/16 09:55:28;;;;;;;;;;;24.50;99.90;;;;;;4593253;19;19941;-62
2023/08/16 09:56:59;;;;;;;;;;;24.60;99.90;;;;;;4593570;19;19913;-60
2023/08/16 09:58:31;;;;;;;;;;;24.50;99.90;;;;;;4591868;19;19918;-60
2023/08/16 10:00:06;;;;;;;;;;;24.30;99.90;;;;;;4593077;19;19911;-61
2023/08/16 10:01:39;;;;;;;;;;;24.40;99.90;;;;;;4593781;19;19925;-61
2023/08/16 10:03:11;;;;;;;;;;;24.60;99.90;;;;;;4593421;19;19941;-61
2023/08/16 10:04:43;;;;;;;;;;;24.80;99.90;;;;;;4593726;19;20219;-61
2023/08/16 10:06:15;;;;;;;;;;;24.90;99.90;;;;;;4593684;19;19927;-61
2023/08/16 10:07:48;;;;;;;;;;;25.10;99.90;;;;;;4591612;19;20294;-61
2023/08/16 10:09:20;;;;;;;;;;;25.20;99.90;;;;;;4592697;19;19922;-61
2023/08/16 10:10:54;;;;;;;;;;;25.30;99.90;;;;;;4593249;19;19928;-61
2023/08/16 10:12:27;;;;;;;;;;;25.30;99.90;;;;;;4592272;19;19915;-61
2023/08/16 10:13:59;;;;;;;;;;;25.40;99.90;;;;;;4592744;19;19919;-61
2023/08/16 10:15:32;;;;;;;;;;;25.50;99.90;;;;;;4593197;19;19927;-61
2023/08/16 10:17:06;;;;;;;;;;;25.60;99.90;;;;;;4593154;19;20241;-61
2023/08/16 10:18:38;;;;;;;;;;;25.60;99.90;;;;;;4592057;19;19911;-61
2023/08/16 10:20:23;;;;;;;;;;;25.70;99.90;;;;;;4592187;19;19925;-62
2023/08/16 10:21:56;;;;;;;;;;;25.70;99.90;;;;;;4593162;19;19922;-61
2023/08/16 10:23:28;;;;;;;;;;;25.70;99.90;;;;;;4593023;19;19926;-61
2023/08/16 10:25:02;;;;;;;;;;;25.70;99.90;;;;;;4591744;19;20330;-61
2023/08/16 10:26:35;;;;;;;;;;;25.70;99.90;;;;;;4592622;19;20365;-61
2023/08/16 10:28:08;;;;;;;;;;;25.70;99.90;;;;;;4592529;19;20223;-61
2023/08/16 10:29:40;;;;;;;;;;;25.80;99.90;;;;;;4592447;19;19967;-61
2023/08/16 10:31:13;;;;;;;;;;;25.70;99.90;;;;;;4592973;19;19931;-61
2023/08/16 10:32:45;;;;;;;;;;;25.80;99.90;;;;;;4592912;19;19981;-61
2023/08/16 10:34:17;;;;;;;;;;;25.80;99.90;;;;;;4593235;19;19921;-61
2023/08/16 10:35:50;;;;;;;;;;;25.80;99.90;;;;;;4591579;19;19971;-61
2023/08/16 10:37:25;;;;;;;;;;;25.80;99.90;;;;;;4592409;19;19937;-61
2023/08/16 10:38:57;;;;;;;;;;;25.80;99.90;;;;;;4591528;19;20290;-61
2023/08/16 10:40:29;;;;;;;;;;;25.90;99.90;;;;;;4592784;19;19918;-61
2023/08/16 10:42:07;;;;;;;;;;;25.80;99.90;;;;;;4592769;19;19919;-61
2023/08/16 10:43:45;;;;;;;;;;;25.80;99.90;;;;;;4593080;19;19966;-61
2023/08/16 10:45:34;;;;;;;;;;;25.80;99.90;;;;;;4593193;19;20334;-61
2023/08/16 10:47:06;;;;;;;;;;;25.80;99.90;;;;;;4593070;19;19919;-61
2023/08/16 10:48:38;;;;;;;;;;;25.80;99.90;;;;;;4592091;19;19911;-61
2023/08/16 10:50:11;;;;;;;;;;;25.80;99.90;;;;;;4592625;19;19914;-61
2023/08/16 10:51:46;;;;;;;;;;;25.80;99.90;;;;;;4592619;19;19915;-61
2023/08/16 10:53:22;;;;;;;;;;;25.80;99.90;;;;;;4592931;19;19915;-61
2023/08/16 10:54:54;;;;;;;;;;;25.70;99.90;;;;;;4591270;19;19994;-61
2023/08/16 10:56:35;;;;;;;;;;;25.70;99.90;;;;;;4592452;19;19911;-61
2023/08/16 10:58:18;;;;;;;;;;;25.80;99.90;;;;;;4592111;19;19918;-61
2023/08/16 11:00:00;;;;;;;;;;;25.80;99.90;;;;;;4591228;19;19922;-61
2023/08/16 11:01:34;;;;;;;;;;;25.70;99.90;;;;;;4592292;19;19915;-61
2023/08/16 11:03:15;;;;;;;;;;;25.80;99.90;;;;;;4592430;19;19911;-61
2023/08/16 11:04:48;;;;;;;;;;;25.80;99.90;;;;;;4592631;19;19966;-61
2023/08/16 11:06:20;;;;;;;;;;;25.80;99.90;;;;;;4592369;19;19921;-61
2023/08/16 11:07:52;;;;;;;;;;;25.80;99.90;;;;;;4592389;19;20294;-61
2023/08/16 11:09:28;;;;;;;;;;;25.70;99.90;;;;;;4591956;19;19933;-61
2023/08/16 11:11:02;;;;;;;;;;;25.70;99.90;;;;;;4592302;19;19911;-61
2023/08/16 11:12:34;;;;;;;;;;;25.70;99.90;;;;;;4592270;19;20305;-61
2023/08/16 11:14:07;;;;;;;;;;;25.70;99.90;;;;;;4592593;19;19929;-61
2023/08/16 11:15:42;;;;;;;;;;;25.70;99.90;;;;;;4592209;19;19914;-61
2023/08/16 11:17:15;;;;;;;;;;;25.70;99.90;;;;;;4592500;19;20307;-61
2023/08/16 11:18:47;;;;;;;;;;;25.70;99.90;;;;;;4591719;19;19928;-61
2023/08/16 11:20:20;;;;;;;;;;;25.70;99.90;;;;;;4596442;19;19922;-61
2023/08/16 11:21:52;;;;;;;;;;;25.70;99.90;;;;;;4596227;19;19947;-61
2023/08/16 11:23:28;;;;;;;;;;;25.70;99.90;;;;;;4594935;19;20421;-61
2023/08/16 11:25:01;;;;;;;;;;;25.70;99.90;;;;;;4595802;19;19918;-61
2023/08/16 11:26:39;;;;;;;;;;;25.70;99.90;;;;;;4597018;19;19919;-61
2023/08/16 11:28:15;;;;;;;;;;;25.70;99.90;;;;;;4595921;19;20305;-61
2023/08/16 11:29:50;;;;;;;;;;;25.70;99.90;;;;;;4595266;19;19918;-62
2023/08/16 11:31:24;;;;;;;;;;;25.70;99.90;;;;;;4595265;19;19918;-62
2023/08/16 11:32:58;;;;;;;;;;;25.70;99.90;;;;;;4596147;19;19932;-63
2023/08/16 11:34:33;;;;;;;;;;;25.70;99.90;;;;;;4596890;19;19922;-63
2023/08/16 11:36:07;;;;;;;;;;;25.70;99.90;;;;;;4596557;19;19919;-62
2023/08/16 11:37:41;;;;;;;;;;;25.70;99.90;;;;;;4596790;19;19911;-62
2023/08/16 11:39:13;;;;;;;;;;;25.60;99.90;;;;;;4596778;19;20011;-62
2023/08/16 11:40:48;;;;;;;;;;;25.50;99.90;;;;;;4596758;19;20256;-62
2023/08/16 11:42:20;;;;;;;;;;;25.50;99.90;;;;;;4596332;19;19927;-62
2023/08/16 11:43:59;;;;;;;;;;;25.30;99.90;;;;;;4596345;19;19921;-62
2023/08/16 11:45:31;;;;;;;;;;;25.30;99.90;;;;;;4596243;19;20225;-62
2023/08/16 11:47:08;;;;;;;;;;;25.20;99.90;;;;;;4596579;19;20320;-62
2023/08/16 11:48:40;;;;;;;;;;;25.00;99.90;;;;;;4595429;19;19951;-62
2023/08/16 11:50:12;;;;;;;;;;;24.90;99.90;;;;;;4595193;19;19957;-63
2023/08/16 11:51:45;;;;;;;;;;;24.80;99.90;;;;;;4594834;19;19919;-62
2023/08/16 11:53:17;;;;;;;;;;;24.60;99.90;;;;;;4595657;19;19911;-62
2023/08/16 11:55:05;;;;;;;;;;;24.50;99.90;;;;;;4596456;19;19911;-62
2023/08/16 11:56:41;;;;;;;;;;;24.40;99.90;;;;;;4596358;19;19919;-62
2023/08/16 11:58:14;;;;;;;;;;;24.20;99.90;;;;;;4594217;19;19918;-62
2023/08/16 11:59:52;;;;;;;;;;;24.10;99.90;;;;;;4594722;19;20283;-62
2023/08/16 12:01:26;;;;;;;;;;;24.00;99.90;;;;;;4595730;19;19918;-62
2023/08/16 12:03:01;;;;;;;;;;;23.90;99.90;;;;;;4596277;19;20217;-62
2023/08/16 12:04:33;;;;;;;;;;;23.80;99.90;;;;;;4596256;19;19915;-62
2023/08/16 12:06:06;;;;;;;;;;;23.70;99.90;;;;;;4596194;19;19914;-62
2023/08/16 12:07:42;;;;;;;;;;;23.50;99.90;;;;;;4595828;19;19921;-62
2023/08/16 12:09:19;;;;;;;;;;;23.40;99.90;;;;;;4595256;19;19915;-62
2023/08/16 12:10:53;;;;;;;;;;;23.40;99.90;;;;;;4595853;19;20353;-62
2023/08/16 12:12:32;;;;;;;;;;;23.30;99.90;;;;;;4596077;19;19918;-62
2023/08/16 12:14:04;;;;;;;;;;;23.20;99.90;;;;;;4596094;19;19935;-63
2023/08/16 12:15:36;;;;;;;;;;;23.10;99.90;;;;;;4595730;19;19918;-62
2023/08/16 12:17:08;;;;;;;;;;;23.10;99.90;;;;;;4595967;19;19919;-62
2023/08/16 12:18:42;;;;;;;;;;;23.00;99.90;;;;;;4594903;19;19917;-62
2023/08/16 12:20:14;;;;;;;;;;;22.90;99.90;;;;;;4595556;19;20222;-63
2023/08/16 12:21:46;;;;;;;;;;;22.80;99.90;;;;;;4595854;19;19918;-63
2023/08/16 12:23:19;;;;;;;;;;;22.80;99.90;;;;;;4594546;19;20246;-62
2023/08/16 12:24:51;;;;;;;;;;;22.80;99.90;;;;;;4594126;19;19914;-63
2023/08/16 12:26:23;;;;;;;;;;;22.80;99.90;;;;;;4594044;19;19931;-60
2023/08/16 12:27:55;;;;;;;;;;;22.80;99.90;;;;;;4594647;19;20254;-63
2023/08/16 12:29:27;;;;;;;;;;;22.80;99.90;;;;;;4594581;19;19929;-63
2023/08/16 12:30:59;;;;;;;;;;;22.80;99.90;;;;;;4594407;19;19911;-63
2023/08/16 12:32:31;;;;;;;;;;;22.80;99.90;;;;;;4594054;19;19978;-63
2023/08/16 12:34:05;;;;;;;;;;;22.80;99.90;;;;;;4594889;19;20298;-63
2023/08/16 12:35:37;;;;;;;;;;;22.90;99.90;;;;;;4595573;19;19990;-63
2023/08/16 12:37:10;;;;;;;;;;;22.90;99.90;;;;;;4595598;19;19914;-62
2023/08/16 12:38:42;;;;;;;;;;;22.80;99.90;;;;;;4593790;19;19911;-62
2023/08/16 12:40:14;;;;;;;;;;;22.90;99.90;;;;;;4595229;19;19937;-63
2023/08/16 12:41:46;;;;;;;;;;;23.00;99.90;;;;;;4595165;19;19910;-64
2023/08/16 12:43:19;;;;;;;;;;;23.10;99.90;;;;;;4595132;19;20218;-63
2023/08/16 12:44:50;;;;;;;;;;;23.20;99.90;;;;;;4595195;19;19980;-63
2023/08/16 12:46:22;;;;;;;;;;;23.40;99.90;;;;;;4595372;19;20291;-63
2023/08/16 12:47:55;;;;;;;;;;;23.40;99.90;;;;;;4594699;19;20229;-64
2023/08/16 12:49:27;;;;;;;;;;;23.50;99.90;;;;;;4594563;19;20277;-64
2023/08/16 12:50:59;;;;;;;;;;;23.60;99.90;;;;;;4594707;19;19924;-64
2023/08/16 12:52:30;;;;;;;;;;;23.70;99.90;;;;;;4594846;19;19930;-64
2023/08/16 12:54:02;;;;;;;;;;;23.70;99.90;;;;;;4594964;19;19915;-64
2023/08/16 12:55:34;;;;;;;;;;;23.80;99.90;;;;;;4595453;19;19970;-64
2023/08/16 12:57:09;;;;;;;;;;;23.90;99.90;;;;;;4595980;19;19936;-64
2023/08/16 12:58:41;;;;;;;;;;;23.90;99.90;;;;;;4593773;19;19915;-63
2023/08/16 13:00:14;;;;;;;;;;;24.00;99.90;;;;;;4595079;19;19914;-63
2023/08/16 13:01:46;;;;;;;;;;;24.00;99.90;;;;;;4594869;19;19930;-63
2023/08/16 13:03:18;;;;;;;;;;;24.10;99.90;;;;;;4595049;19;19986;-63
2023/08/16 13:04:50;;;;;;;;;;;24.10;99.90;;;;;;4594714;19;19914;-63
2023/08/16 13:06:22;;;;;;;;;;;24.20;99.90;;;;;;4594976;19;19940;-63
2023/08/16 13:07:53;;;;;;;;;;;23.70;99.90;;;;;;4594627;19;19926;-63
2023/08/16 13:09:25;;;;;;;;;;;23.80;99.90;;;;;;4594253;19;20216;-63
2023/08/16 13:10:58;;;;;;;;;;;24.10;99.90;;;;;;4596040;19;19915;-63
2023/08/16 13:12:30;;;;;;;;;;;24.60;99.90;;;;;;4594880;19;19915;-62
2023/08/16 13:14:03;;;;;;;;;;;24.90;99.90;;;;;;4594814;19;19911;-62
2023/08/16 13:15:36;;;;;;;;;;;25.30;99.90;;;;;;4594412;19;20236;-63
2023/08/16 13:17:08;;;;;;;;;;;25.50;99.90;;;;;;4594802;19;19919;-63
2023/08/16 13:18:40;;;;;;;;;;;25.70;99.90;;;;;;4593448;19;20199;-63
2023/08/16 13:20:14;;;;;;;;;;;25.90;99.90;;;;;;4594320;19;19915;-63
2023/08/16 13:21:46;;;;;;;;;;;26.10;99.90;;;;;;4594649;19;19985;-63
2023/08/16 13:23:17;;;;;;;;;;;26.20;99.90;;;;;;4594333;19;20266;-63
2023/08/16 13:24:49;;;;;;;;;;;26.30;99.90;;;;;;4594599;19;19935;-63
2023/08/16 13:26:21;;;;;;;;;;;26.30;99.90;;;;;;4594294;19;19918;-63
2023/08/16 13:27:53;;;;;;;;;;;26.40;99.90;;;;;;4594021;19;20237;-63
2023/08/16 13:29:25;;;;;;;;;;;26.40;99.90;;;;;;4593688;19;19937;-63
2023/08/16 13:30:57;;;;;;;;;;;26.40;99.90;;;;;;4594505;19;20217;-63
2023/08/16 13:32:30;;;;;;;;;;;26.40;99.90;;;;;;4594465;19;19918;-63
2023/08/16 13:34:02;;;;;;;;;;;26.40;99.90;;;;;;4592781;19;19921;-63
2023/08/16 13:35:34;;;;;;;;;;;26.40;99.90;;;;;;4593096;19;20286;-63
2023/08/16 13:37:06;;;;;;;;;;;26.40;99.90;;;;;;4595289;19;20325;-63
2023/08/16 13:38:39;;;;;;;;;;;26.30;99.90;;;;;;4595328;19;19914;-63
2023/08/16 13:40:13;;;;;;;;;;;26.30;99.90;;;;;;4595228;19;19910;-62
2023/08/16 13:41:45;;;;;;;;;;;26.30;99.90;;;;;;4592681;19;19911;-62
2023/08/16 13:43:17;;;;;;;;;;;26.30;99.90;;;;;;4592980;19;19922;-63
2023/08/16 13:44:49;;;;;;;;;;;26.30;99.90;;;;;;4594205;19;19926;-63
2023/08/16 13:46:21;;;;;;;;;;;26.20;99.90;;;;;;4592431;19;19970;-63
2023/08/16 13:47:53;;;;;;;;;;;26.30;99.90;;;;;;4593178;19;20222;-70
2023/08/16 13:49:25;;;;;;;;;;;26.40;99.90;;;;;;4591776;19;19922;-61
2023/08/16 13:50:57;;;;;;;;;;;26.40;99.90;;;;;;4593436;19;19910;-61
2023/08/16 13:52:29;;;;;;;;;;;26.40;99.90;;;;;;4595355;19;19982;-61
2023/08/16 13:54:01;;;;;;;;;;;26.50;99.90;;;;;;4594021;19;19923;-60
2023/08/16 13:55:33;;;;;;;;;;;26.50;99.90;;;;;;4593630;19;19985;-61
2023/08/16 13:57:05;;;;;;;;;;;26.50;99.90;;;;;;4591798;19;19914;-60